createdAt,value
2019-04-16T00:01:08.139Z,7.27
2019-04-16T00:03:38.903Z,7.19
2019-04-16T00:06:14.814Z,7.06
2019-04-16T00:08:50.063Z,7.13
2019-04-16T00:11:24.564Z,7.06
2019-04-16T00:13:57.954Z,7.10
2019-04-16T00:16:26.743Z,7.04
2019-04-16T00:18:58.050Z,7.01
2019-04-16T00:21:51.186Z,7.01
2019-04-16T00:24:24.505Z,6.98
2019-04-16T00:26:58.070Z,6.92
2019-04-16T00:29:24.893Z,6.93
2019-04-16T00:32:12.605Z,6.93
2019-04-16T00:34:44.504Z,6.79
2019-04-16T00:37:12.283Z,6.91
2019-04-16T00:39:40.973Z,6.89
2019-04-16T00:42:10.426Z,6.91
2019-04-16T00:44:39.135Z,7.04
2019-04-16T00:47:08.205Z,6.87
2019-04-16T00:49:38.049Z,6.90
2019-04-16T00:52:07.406Z,6.84
2019-04-16T00:54:36.176Z,6.88
2019-04-16T00:57:05.184Z,6.91
2019-04-16T00:59:33.955Z,6.83
2019-04-16T01:02:02.799Z,6.76
2019-04-16T01:04:31.550Z,6.68
2019-04-16T01:07:00.497Z,6.69
2019-04-16T01:09:30.090Z,6.75
2019-04-16T01:11:59.166Z,6.74
2019-04-16T01:14:28.105Z,6.83
2019-04-16T01:16:57.163Z,6.75
2019-04-16T01:19:25.920Z,6.63
2019-04-16T01:21:55.192Z,6.65
2019-04-16T01:24:23.949Z,6.59
2019-04-16T01:26:52.625Z,6.54
2019-04-16T01:29:22.059Z,6.54
2019-04-16T01:32:11.381Z,6.56
2019-04-16T01:34:58.620Z,6.54
2019-04-16T01:37:44.908Z,6.55
2019-04-16T01:40:18.446Z,6.45
2019-04-16T01:42:46.337Z,6.44
2019-04-16T01:45:15.068Z,6.27
2019-04-16T01:47:44.244Z,6.12
2019-04-16T01:50:14.084Z,6.12
2019-04-16T01:52:43.041Z,6.14
2019-04-16T01:55:12.052Z,6.08
2019-04-16T01:57:41.003Z,5.99
2019-04-16T02:00:10.810Z,6.01
2019-04-16T02:02:39.783Z,5.89
2019-04-16T02:05:08.854Z,5.95
2019-04-16T02:07:38.840Z,5.95
2019-04-16T02:10:08.126Z,5.85
2019-04-16T02:12:36.945Z,5.83
2019-04-16T02:15:07.525Z,5.86
2019-04-16T02:17:36.237Z,5.82
2019-04-16T02:20:07.467Z,5.78
2019-04-16T02:22:37.028Z,5.66
2019-04-16T02:25:06.228Z,5.69
2019-04-16T02:27:35.153Z,5.66
2019-04-16T02:30:05.682Z,5.53
2019-04-16T02:32:34.530Z,5.47
2019-04-16T02:35:06.024Z,5.52
2019-04-16T02:37:36.346Z,5.44
2019-04-16T02:40:05.515Z,5.45
2019-04-16T02:42:34.538Z,5.39
2019-04-16T02:45:03.760Z,5.50
2019-04-16T02:47:32.525Z,5.51
2019-04-16T02:50:02.178Z,5.58
2019-04-16T02:52:51.061Z,5.51
2019-04-16T02:55:24.904Z,5.38
2019-04-16T02:58:00.095Z,5.24
2019-04-16T03:00:41.102Z,5.40
2019-04-16T03:03:13.620Z,5.24
2019-04-16T03:05:45.492Z,5.15
2019-04-16T03:08:14.367Z,5.02
2019-04-16T03:10:44.611Z,5.00
2019-04-16T03:13:13.869Z,4.80
2019-04-16T03:16:08.919Z,4.76
2019-04-16T03:18:47.552Z,4.73
2019-04-16T03:21:16.621Z,4.76
2019-04-16T03:23:45.358Z,4.71
2019-04-16T03:26:17.592Z,4.64
2019-04-16T03:28:44.718Z,4.77
2019-04-16T03:31:19.500Z,4.76
2019-04-16T03:33:50.578Z,4.69
2019-04-16T03:36:14.670Z,4.74
2019-04-16T03:38:43.841Z,4.74
2019-04-16T03:41:12.759Z,4.78
2019-04-16T03:43:41.487Z,4.72
2019-04-16T03:46:12.772Z,4.73
2019-04-16T03:48:40.902Z,4.71
2019-04-16T03:51:09.603Z,4.75
2019-04-16T03:53:38.318Z,4.78
2019-04-16T03:56:07.075Z,4.73
2019-04-16T03:58:38.628Z,4.64
2019-04-16T04:01:06.508Z,4.66
2019-04-16T04:03:35.209Z,4.65
2019-04-16T04:06:06.850Z,4.64
2019-04-16T04:08:34.329Z,4.64
2019-04-16T04:11:03.011Z,4.53
2019-04-16T04:13:31.702Z,4.50
2019-04-16T04:16:01.630Z,4.53
2019-04-16T04:18:31.190Z,4.58
2019-04-16T04:20:59.880Z,4.38
2019-04-16T04:23:29.409Z,4.46
2019-04-16T04:25:58.203Z,4.56
2019-04-16T04:28:26.939Z,4.58
2019-04-16T04:30:57.700Z,4.54
2019-04-16T04:33:40.373Z,4.50
2019-04-16T04:36:08.397Z,4.52
2019-04-16T04:38:38.499Z,4.40
2019-04-16T04:41:07.863Z,4.38
2019-04-16T04:43:37.174Z,4.41
2019-04-16T04:46:06.150Z,4.39
2019-04-16T04:48:34.924Z,4.40
2019-04-16T04:51:07.242Z,4.40
2019-04-16T04:53:34.227Z,4.54
2019-04-16T04:56:02.908Z,4.49
2019-04-16T04:58:34.102Z,4.36
2019-04-16T05:01:02.548Z,4.46
2019-04-16T05:03:53.549Z,4.41
2019-04-16T05:06:27.817Z,4.56
2019-04-16T05:08:57.550Z,4.54
2019-04-16T05:11:27.477Z,4.56
2019-04-16T05:13:57.023Z,4.61
2019-04-16T05:16:25.843Z,4.54
2019-04-16T05:18:54.855Z,4.61
2019-04-16T05:21:23.539Z,4.61
2019-04-16T05:23:57.024Z,4.56
2019-04-16T05:26:23.113Z,4.51
2019-04-16T05:28:51.911Z,4.40
2019-04-16T05:31:24.557Z,4.53
2019-04-16T05:33:51.309Z,4.36
2019-04-16T05:36:21.571Z,4.47
2019-04-16T05:38:55.529Z,4.47
2019-04-16T05:41:22.802Z,4.53
2019-04-16T05:43:51.748Z,4.53
2019-04-16T05:46:20.434Z,4.51
2019-04-16T05:48:51.386Z,4.53
2019-04-16T05:51:19.790Z,4.57
2019-04-16T05:53:52.237Z,4.62
2019-04-16T05:56:35.551Z,4.74
2019-04-16T05:59:04.295Z,4.65
2019-04-16T06:01:38.045Z,4.72
2019-04-16T06:04:06.808Z,4.87
2019-04-16T06:06:35.574Z,4.95
2019-04-16T06:09:11.912Z,5.02
2019-04-16T06:11:37.679Z,5.20
2019-04-16T06:14:26.237Z,5.26
2019-04-16T06:17:08.557Z,5.30
2019-04-16T06:19:46.752Z,5.33
2019-04-16T06:22:22.205Z,5.28
2019-04-16T06:25:10.859Z,5.38
2019-04-16T06:27:56.680Z,5.38
2019-04-16T06:30:45.346Z,5.44
2019-04-16T06:33:17.678Z,5.51
2019-04-16T06:36:05.964Z,5.64
2019-04-16T06:38:42.837Z,5.63
2019-04-16T06:41:41.197Z,5.71
2019-04-16T06:43:59.673Z,5.76
2019-04-16T06:46:47.951Z,5.86
2019-04-16T06:49:30.890Z,5.89
2019-04-16T06:52:18.125Z,5.96
2019-04-16T06:55:05.130Z,6.13
2019-04-16T06:57:51.535Z,6.29
2019-04-16T07:00:45.046Z,6.32
2019-04-16T07:03:32.620Z,6.34
2019-04-16T07:06:29.466Z,6.46
2019-04-16T07:09:05.798Z,6.57
2019-04-16T07:11:34.886Z,6.81
2019-04-16T07:14:03.771Z,6.93
2019-04-16T07:16:32.740Z,6.88
2019-04-16T07:19:01.916Z,6.86
2019-04-16T07:21:30.634Z,6.85
2019-04-16T07:23:59.773Z,6.99
2019-04-16T07:26:28.636Z,7.22
2019-04-16T07:29:14.188Z,7.45
2019-04-16T07:31:53.489Z,7.46
2019-04-16T07:34:35.849Z,7.55
2019-04-16T07:37:38.675Z,7.65
2019-04-16T07:40:32.503Z,7.73
2019-04-16T07:43:16.346Z,7.89
2019-04-16T07:45:52.107Z,7.97
2019-04-16T07:48:28.270Z,8.07
2019-04-16T07:51:05.554Z,8.17
2019-04-16T07:53:52.463Z,8.07
2019-04-16T07:56:23.813Z,8.15
2019-04-16T07:58:52.518Z,8.43
2019-04-16T08:01:21.513Z,8.52
2019-04-16T08:03:51.969Z,8.60
2019-04-16T08:06:20.772Z,8.52
2019-04-16T08:08:49.870Z,8.77
2019-04-16T08:11:18.829Z,8.84
2019-04-16T08:13:47.546Z,8.96
2019-04-16T08:16:16.295Z,8.80
2019-04-16T08:18:49.466Z,8.96
2019-04-16T08:21:18.199Z,9.18
2019-04-16T08:23:53.849Z,9.15
2019-04-16T08:26:22.890Z,9.21
2019-04-16T08:28:51.579Z,9.43
2019-04-16T08:31:23.830Z,9.47
2019-04-16T08:33:52.586Z,9.42
2019-04-16T08:36:21.319Z,9.63
2019-04-16T08:38:50.032Z,9.70
2019-04-16T08:41:21.391Z,9.78
2019-04-16T08:43:49.482Z,9.84
2019-04-16T08:46:18.201Z,9.87
2019-04-16T08:48:49.329Z,9.96
2019-04-16T08:51:29.697Z,10.22
2019-04-16T08:53:48.113Z,10.21
2019-04-16T08:56:16.833Z,10.25
2019-04-16T08:58:45.668Z,10.49
2019-04-16T09:01:23.260Z,10.55
2019-04-16T09:03:49.047Z,10.58
2019-04-16T09:06:17.837Z,10.71
2019-04-16T09:08:54.542Z,10.89
2019-04-16T09:11:24.073Z,10.89
2019-04-16T09:13:58.038Z,10.96
2019-04-16T09:16:26.920Z,11.04
2019-04-16T09:19:00.434Z,11.12
2019-04-16T09:21:29.213Z,11.05
2019-04-16T09:24:15.775Z,11.11
2019-04-16T09:26:52.692Z,11.07
2019-04-16T09:29:45.447Z,11.17
2019-04-16T09:32:33.273Z,11.17
2019-04-16T09:35:18.417Z,11.35
2019-04-16T09:37:50.701Z,11.54
2019-04-16T09:40:44.974Z,11.60
2019-04-16T09:43:18.426Z,11.62
2019-04-16T09:45:47.957Z,11.71
2019-04-16T09:48:16.685Z,11.77
2019-04-16T09:50:47.816Z,11.93
2019-04-16T09:53:15.864Z,11.90
2019-04-16T09:55:47.466Z,12.02
2019-04-16T09:58:21.759Z,12.09
2019-04-16T10:01:18.278Z,12.17
2019-04-16T10:03:49.333Z,12.34
2019-04-16T10:06:18.145Z,12.17
2019-04-16T10:08:47.177Z,12.22
2019-04-16T10:11:18.538Z,12.34
2019-04-16T10:13:46.850Z,12.39
2019-04-16T10:16:15.590Z,12.47
2019-04-16T10:18:44.295Z,12.55
2019-04-16T10:21:18.757Z,12.66
2019-04-16T10:23:53.827Z,12.60
2019-04-16T10:26:22.587Z,12.66
2019-04-16T10:28:51.308Z,12.81
2019-04-16T10:31:20.305Z,12.92
2019-04-16T10:33:49.040Z,12.95
2019-04-16T10:36:17.763Z,13.06
2019-04-16T10:38:52.415Z,13.21
2019-04-16T10:41:29.223Z,13.30
2019-04-16T10:44:17.235Z,13.56
2019-04-16T10:47:04.980Z,13.62
2019-04-16T10:50:07.759Z,13.68
2019-04-16T10:53:13.713Z,13.78
2019-04-16T10:56:07.461Z,13.75
2019-04-16T10:59:04.086Z,13.71
2019-04-16T11:01:37.093Z,13.72
2019-04-16T11:04:13.911Z,13.74
2019-04-16T11:06:45.296Z,13.92
2019-04-16T11:09:14.109Z,13.86
2019-04-16T11:11:43.010Z,14.15
2019-04-16T11:14:12.106Z,14.24
2019-04-16T11:16:43.106Z,14.27
2019-04-16T11:19:12.381Z,14.29
2019-04-16T11:21:41.707Z,14.35
2019-04-16T11:24:10.451Z,14.36
2019-04-16T11:26:39.424Z,14.57
2019-04-16T11:29:08.719Z,14.69
2019-04-16T11:31:38.032Z,14.69
2019-04-16T11:34:07.764Z,14.86
2019-04-16T11:36:37.278Z,15.03
2019-04-16T11:39:09.112Z,15.04
2019-04-16T11:41:37.227Z,15.00
2019-04-16T11:44:15.238Z,15.14
2019-04-16T11:46:36.739Z,15.14
2019-04-16T11:49:05.611Z,15.29
2019-04-16T11:51:34.482Z,15.36
2019-04-16T11:54:03.222Z,15.50
2019-04-16T11:56:31.915Z,15.57
2019-04-16T11:59:00.960Z,15.42
2019-04-16T12:01:58.120Z,15.52
2019-04-16T12:04:59.014Z,15.70
2019-04-16T12:07:32.799Z,15.71
2019-04-16T12:10:19.414Z,15.74
2019-04-16T12:13:06.215Z,15.85
2019-04-16T12:15:54.352Z,15.93
2019-04-16T12:18:32.942Z,16.10
2019-04-16T12:21:08.048Z,16.29
2019-04-16T12:24:14.020Z,16.33
2019-04-16T12:27:11.309Z,16.52
2019-04-16T12:29:57.458Z,16.70
2019-04-16T12:32:52.647Z,16.64
2019-04-16T12:35:34.751Z,16.70
2019-04-16T12:38:12.004Z,16.77
2019-04-16T12:40:58.094Z,16.64
2019-04-16T12:43:35.834Z,16.72
2019-04-16T12:46:11.925Z,16.81
2019-04-16T12:48:58.892Z,16.94
2019-04-16T12:51:40.989Z,17.04
2019-04-16T12:54:28.892Z,17.08
2019-04-16T12:57:19.952Z,17.23
2019-04-16T13:00:19.737Z,17.34
2019-04-16T13:02:56.968Z,17.38
2019-04-16T13:05:32.318Z,17.46
2019-04-16T13:08:32.518Z,17.37
2019-04-16T13:11:23.157Z,17.38
2019-04-16T13:14:13.589Z,17.54
2019-04-16T13:16:59.804Z,17.58
2019-04-16T13:19:49.514Z,17.57
2019-04-16T13:22:19.941Z,17.64
2019-04-16T13:24:53.254Z,17.66
2019-04-16T13:27:24.387Z,17.64
2019-04-16T13:29:53.598Z,17.67
2019-04-16T13:32:22.519Z,17.62
2019-04-16T13:34:51.310Z,17.82
2019-04-16T13:37:20.004Z,17.80
2019-04-16T13:39:59.278Z,17.96
2019-04-16T13:42:26.064Z,18.14
2019-04-16T13:45:15.263Z,18.00
2019-04-16T13:47:30.358Z,18.03
2019-04-16T13:50:17.603Z,18.07
2019-04-16T13:52:47.156Z,17.89
2019-04-16T13:55:24.839Z,17.99
2019-04-16T13:58:02.915Z,18.18
2019-04-16T14:00:37.193Z,18.19
2019-04-16T14:03:09.984Z,18.31
2019-04-16T14:05:42.521Z,18.14
2019-04-16T14:08:09.298Z,18.07
2019-04-16T14:10:38.076Z,18.02
2019-04-16T14:13:12.133Z,18.03
2019-04-16T14:15:40.375Z,17.92
2019-04-16T14:18:07.998Z,17.94
2019-04-16T14:20:36.702Z,17.96
2019-04-16T14:23:05.782Z,18.05
2019-04-16T14:25:34.504Z,17.97
2019-04-16T14:28:03.752Z,17.90
2019-04-16T14:30:42.755Z,17.98
2019-04-16T14:33:12.205Z,18.00
2019-04-16T14:35:41.036Z,18.32
2019-04-16T14:38:09.725Z,18.26
2019-04-16T14:40:39.720Z,18.14
2019-04-16T14:43:08.861Z,18.23
2019-04-16T14:45:56.984Z,18.13
2019-04-16T14:48:11.835Z,18.09
2019-04-16T14:50:40.874Z,17.95
2019-04-16T14:53:09.637Z,17.84
2019-04-16T14:55:59.930Z,17.89
2019-04-16T14:58:43.252Z,17.83
2019-04-16T15:01:36.031Z,17.91
2019-04-16T15:04:23.847Z,17.75
2019-04-16T15:07:14.378Z,17.85
2019-04-16T15:10:04.960Z,17.83
2019-04-16T15:12:58.719Z,17.92
2019-04-16T15:15:34.532Z,17.88
2019-04-16T15:18:08.451Z,17.83
2019-04-16T15:20:47.648Z,17.98
2019-04-16T15:23:22.567Z,17.97
2019-04-16T15:26:01.801Z,17.96
2019-04-16T15:28:41.669Z,17.92
2019-04-16T15:31:15.939Z,17.54
2019-04-16T15:33:55.459Z,17.29
2019-04-16T15:36:28.114Z,17.30
2019-04-16T15:39:14.451Z,17.37
2019-04-16T15:42:05.633Z,17.45
2019-04-16T15:45:08.918Z,17.35
2019-04-16T15:48:09.127Z,17.37
2019-04-16T15:50:46.333Z,17.53
2019-04-16T15:53:38.774Z,17.46
2019-04-16T15:56:25.282Z,17.36
2019-04-16T15:59:25.045Z,17.52
2019-04-16T16:02:13.855Z,17.40
2019-04-16T16:04:47.259Z,17.46
2019-04-16T16:07:23.995Z,17.27
2019-04-16T16:09:59.595Z,17.30
2019-04-16T16:12:30.105Z,17.19
2019-04-16T16:14:58.840Z,17.10
2019-04-16T16:17:27.560Z,16.99
2019-04-16T16:19:56.608Z,17.02
2019-04-16T16:22:25.560Z,16.97
2019-04-16T16:24:54.382Z,16.85
2019-04-16T16:27:23.136Z,16.68
2019-04-16T16:29:51.811Z,16.67
2019-04-16T16:32:20.580Z,16.64
2019-04-16T16:34:49.554Z,16.49
2019-04-16T16:37:18.525Z,16.38
2019-04-16T16:39:47.471Z,16.32
2019-04-16T16:42:16.267Z,16.35
2019-04-16T16:44:44.947Z,16.26
2019-04-16T16:47:22.286Z,16.21
2019-04-16T16:49:51.006Z,16.16
2019-04-16T16:52:38.907Z,16.17
2019-04-16T16:55:11.035Z,16.12
2019-04-16T16:57:46.185Z,16.00
2019-04-16T17:00:33.510Z,15.90
2019-04-16T17:03:18.437Z,15.74
2019-04-16T17:05:47.649Z,15.58
2019-04-16T17:08:17.108Z,15.50
2019-04-16T17:10:45.871Z,15.38
2019-04-16T17:13:18.565Z,15.20
2019-04-16T17:15:45.103Z,15.14
2019-04-16T17:18:13.842Z,15.22
2019-04-16T17:20:42.785Z,15.15
2019-04-16T17:23:16.434Z,15.07
2019-04-16T17:25:42.009Z,15.03
2019-04-16T17:28:10.742Z,14.96
2019-04-16T17:30:39.424Z,14.92
2019-04-16T17:33:08.215Z,14.79
2019-04-16T17:35:37.306Z,14.68
2019-04-16T17:38:07.179Z,14.61
2019-04-16T17:40:58.729Z,14.45
2019-04-16T17:43:59.911Z,14.43
2019-04-16T17:46:29.419Z,14.32
2019-04-16T17:49:16.184Z,14.24
2019-04-16T17:51:59.037Z,14.20
2019-04-16T17:54:34.594Z,14.10
2019-04-16T17:57:14.224Z,14.09
2019-04-16T17:59:54.093Z,14.06
2019-04-16T18:02:40.823Z,13.84
2019-04-16T18:05:34.706Z,13.87
2019-04-16T18:08:34.782Z,13.78
2019-04-16T18:11:31.644Z,13.67
2019-04-16T18:14:13.078Z,13.66
2019-04-16T18:16:59.352Z,13.67
2019-04-16T18:19:47.109Z,13.58
2019-04-16T18:22:22.134Z,13.53
2019-04-16T18:25:13.562Z,13.41
2019-04-16T18:27:52.419Z,13.37
2019-04-16T18:30:37.426Z,13.24
2019-04-16T18:33:37.082Z,13.27
2019-04-16T18:36:18.912Z,13.14
2019-04-16T18:39:05.876Z,13.06
2019-04-16T18:41:45.879Z,13.13
2019-04-16T18:44:34.489Z,13.14
2019-04-16T18:47:21.056Z,13.05
2019-04-16T18:49:52.423Z,13.04
2019-04-16T18:52:21.148Z,13.01
2019-04-16T18:54:50.015Z,13.03
2019-04-16T18:57:19.035Z,13.00
2019-04-16T18:59:47.932Z,12.94
2019-04-16T19:02:16.993Z,12.93
2019-04-16T19:04:45.763Z,12.78
2019-04-16T19:07:14.471Z,12.88
2019-04-16T19:09:43.252Z,12.89
2019-04-16T19:12:12.639Z,12.96
2019-04-16T19:14:41.355Z,12.91
2019-04-16T19:17:10.633Z,12.60
2019-04-16T19:19:44.510Z,12.67
2019-04-16T19:22:10.219Z,12.77
2019-04-16T19:24:38.940Z,12.70
2019-04-16T19:27:07.691Z,12.68
2019-04-16T19:29:37.142Z,12.68
2019-04-16T19:32:06.094Z,12.54
2019-04-16T19:34:35.237Z,12.42
2019-04-16T19:37:05.077Z,12.55
2019-04-16T19:39:33.799Z,12.47
2019-04-16T19:42:02.514Z,12.53
2019-04-16T19:44:33.725Z,12.50
2019-04-16T19:47:02.661Z,12.38
2019-04-16T19:49:31.376Z,12.28
2019-04-16T19:52:00.051Z,12.34
2019-04-16T19:54:31.670Z,12.42
2019-04-16T19:57:00.460Z,12.46
2019-04-16T19:59:29.238Z,12.33
2019-04-16T20:01:59.736Z,12.32
2019-04-16T20:04:28.414Z,12.35
2019-04-16T20:07:01.153Z,12.22
2019-04-16T20:09:28.105Z,12.14
2019-04-16T20:11:57.076Z,12.12
2019-04-16T20:14:25.801Z,12.04
2019-04-16T20:16:54.498Z,11.99
2019-04-16T20:19:23.515Z,12.03
2019-04-16T20:21:52.236Z,11.78
2019-04-16T20:24:22.501Z,11.88
2019-04-16T20:26:51.701Z,12.10
2019-04-16T20:29:20.423Z,11.83
2019-04-16T20:31:49.114Z,11.98
2019-04-16T20:34:18.434Z,11.76
2019-04-16T20:36:47.182Z,11.93
2019-04-16T20:39:17.083Z,11.82
2019-04-16T20:41:52.767Z,11.91
2019-04-16T20:44:17.943Z,11.79
2019-04-16T20:46:46.711Z,11.98
2019-04-16T20:49:16.874Z,12.02
2019-04-16T20:51:46.407Z,12.02
2019-04-16T20:54:15.091Z,11.93
2019-04-16T20:56:43.811Z,11.79
2019-04-16T20:59:12.794Z,11.85
2019-04-16T21:01:41.779Z,11.83
2019-04-16T21:04:10.478Z,11.77
2019-04-16T21:06:41.850Z,11.81
2019-04-16T21:09:09.891Z,11.76
2019-04-16T21:11:41.020Z,11.67
2019-04-16T21:14:09.026Z,11.67
2019-04-16T21:16:37.986Z,11.69
2019-04-16T21:19:21.710Z,11.70
2019-04-16T21:21:38.154Z,11.61
2019-04-16T21:24:08.352Z,11.64
2019-04-16T21:26:37.822Z,11.45
2019-04-16T21:29:14.417Z,11.56
2019-04-16T21:31:46.966Z,11.65
2019-04-16T21:34:29.653Z,11.63
2019-04-16T21:37:11.682Z,11.65
2019-04-16T21:39:51.362Z,11.62
2019-04-16T21:42:18.718Z,11.67
2019-04-16T21:44:47.451Z,11.60
2019-04-16T21:47:16.178Z,11.60
2019-04-16T21:49:45.917Z,11.49
2019-04-16T21:52:14.810Z,11.59
2019-04-16T21:54:43.590Z,11.59
2019-04-16T21:57:13.552Z,11.45
2019-04-16T21:59:42.920Z,11.45
2019-04-16T22:02:17.292Z,11.38
2019-04-16T22:04:47.054Z,11.44
2019-04-16T22:07:15.752Z,11.48
2019-04-16T22:09:44.468Z,11.35
2019-04-16T22:12:15.429Z,11.35
2019-04-16T22:14:43.679Z,11.14
2019-04-16T22:17:12.466Z,11.18
2019-04-16T22:19:53.218Z,11.18
2019-04-16T22:22:15.003Z,11.33
2019-04-16T22:24:42.300Z,11.33
2019-04-16T22:27:11.000Z,11.33
2019-04-16T22:29:39.700Z,11.30
2019-04-16T22:32:08.796Z,11.30
2019-04-16T22:34:38.820Z,11.26
2019-04-16T22:37:07.964Z,11.26
2019-04-16T22:43:06.197Z,11.21
2019-04-16T22:45:39.809Z,11.08
2019-04-16T22:48:08.804Z,10.94
2019-04-16T22:50:38.663Z,10.94
2019-04-16T22:53:07.802Z,11.03
2019-04-16T22:55:36.437Z,10.93
2019-04-16T22:58:05.493Z,11.03
2019-04-16T23:00:44.491Z,11.04
2019-04-16T23:03:16.641Z,11.08
2019-04-16T23:05:45.039Z,10.93
2019-04-16T23:08:13.741Z,11.01
2019-04-16T23:10:42.510Z,10.97
2019-04-16T23:13:11.214Z,10.95
2019-04-16T23:15:40.790Z,10.95
2019-04-16T23:18:09.804Z,10.96
2019-04-16T23:20:40.637Z,8.61
2019-04-16T23:23:09.649Z,10.81
2019-04-16T23:25:38.868Z,10.76
2019-04-16T23:28:10.972Z,10.72
2019-04-16T23:30:38.560Z,10.72
2019-04-16T23:33:07.647Z,10.75
2019-04-16T23:35:43.180Z,10.83
2019-04-16T23:38:07.050Z,10.73
2019-04-16T23:40:36.058Z,10.75
2019-04-16T23:43:21.913Z,10.75
2019-04-16T23:46:10.286Z,10.73
2019-04-16T23:48:51.023Z,10.70
2019-04-16T23:51:28.707Z,10.73
2019-04-16T23:54:20.566Z,10.69
2019-04-16T23:57:05.400Z,10.68
2019-04-16T23:59:42.744Z,10.77
